Time;durP1;ratioP1;P1;durP2;ratioP2;P2;SDS_P1;SDS_P2;PMS_P1;PMS_P2;Temp;Humidity;BMP_temperature;BMP_pressure;BME280_temperature;BME280_humidity;BME280_pressure;Samples;Min_cycle;Max_cycle;Signal;HPM_P1;HPM_P2
2022/09/15 00:00:47;;;;;;;;;;;;;;;;;;6162948;23;20025;-79
2022/09/15 00:03:12;;;;;;;11.23;3.17;;;;;;;;;;6161621;23;19904;-78
2022/09/15 00:05:38;;;;;;;;;;;;;;;;;;6161968;23;20119;-78
2022/09/15 00:08:03;;;;;;;15.73;3.60;;;;;;;;;;6187660;23;19926;-78
2022/09/15 00:10:29;;;;;;;;;;;;;;;;;;6186969;23;20008;-78
2022/09/15 00:12:54;;;;;;;7.45;3.35;;;;;;;;;;6161392;23;19927;-78
2022/09/15 00:15:20;;;;;;;;;;;;;;;;;;6186664;23;20083;-79
2022/09/15 00:17:47;;;;;;;156.13;8.95;;;;;;;;;;6161046;23;19904;-78
2022/09/15 00:20:13;;;;;;;39.17;5.25;;;;;;;;;;6185885;23;20463;-79
2022/09/15 00:22:38;;;;;;;;;;;;;;;;;;6160984;23;20001;-78
2022/09/15 00:25:04;;;;;;;43.45;5.38;;;;;;;;;;6160312;23;20402;-78
2022/09/15 00:27:29;;;;;;;;;;;;;;;;;;6160996;23;20033;-80
2022/09/15 00:29:55;;;;;;;13.60;4.45;;;;;;;;;;6160908;23;19908;-79
2022/09/15 00:32:20;;;;;;;;;;;;;;;;;;6160876;23;20001;-78
2022/09/15 00:34:46;;;;;;;25.83;4.40;;;;;;;;;;6161066;23;19908;-79
2022/09/15 00:37:11;;;;;;;;;;;;;;;;;;6161239;23;20420;-77
2022/09/15 00:39:36;;;;;;;24.23;5.18;;;;;;;;;;6160791;23;19912;-78
2022/09/15 00:42:02;;;;;;;;;;;;;;;;;;6161032;23;20001;-78
2022/09/15 00:44:46;;;;;;;28.63;4.18;;;;;;;;;;6160355;23;20355;-78
2022/09/15 00:47:11;;;;;;;18.30;3.10;;;;;;;;;;6186761;23;20024;-78
2022/09/15 00:49:36;;;;;;;;;;;;;;;;;;6185922;23;20005;-77
2022/09/15 00:52:09;;;;;;;8.68;3.40;;;;;;;;;;6187013;23;19987;-77
2022/09/15 00:54:38;;;;;;;35.72;4.45;;;;;;;;;;6160468;23;20009;-78
2022/09/15 00:57:10;;;;;;;88.25;5.95;;;;;;;;;;6135898;23;20385;-78
2022/09/15 00:59:36;;;;;;;43.42;5.13;;;;;;;;;;6187075;23;20075;-78
2022/09/15 01:02:01;;;;;;;;;;;;;;;;;;6161751;23;20425;-78
2022/09/15 01:04:27;;;;;;;13.18;3.05;;;;;;;;;;6160540;23;19912;-79
2022/09/15 01:06:52;;;;;;;;;;;;;;;;;;6136193;23;20005;-78
2022/09/15 01:09:20;;;;;;;37.95;4.10;;;;;;;;;;6160590;23;19915;-80
2022/09/15 01:11:45;;;;;;;8.90;3.47;;;;;;;;;;6160348;23;20008;-78
2022/09/15 01:14:11;;;;;;;;;;;;;;;;;;6161995;23;20041;-80
2022/09/15 01:16:54;;;;;;;46.40;5.18;;;;;;;;;;6163236;23;19959;-78
2022/09/15 01:19:26;;;;;;;130.63;7.03;;;;;;;;;;6187917;23;20457;-78
2022/09/15 01:21:58;;;;;;;32.65;3.97;;;;;;;;;;6136107;23;20013;-78
2022/09/15 01:24:39;;;;;;;7.53;3.50;;;;;;;;;;6185606;23;20028;-78
2022/09/15 01:27:28;;;;;;;49.38;4.30;;;;;;;;;;6185472;23;20159;-77
2022/09/15 01:29:58;;;;;;;14.32;3.20;;;;;;;;;;6148744;23;20095;-79
2022/09/15 01:35:18;;;;;;;47.80;4.50;;;;;;;;;;6187033;23;20013;-77
2022/09/15 01:37:46;;;;;;;12.63;3.78;;;;;;;;;;6160586;23;20024;-77
2022/09/15 01:40:11;;;;;;;104.20;6.70;;;;;;;;;;6185706;23;20421;-78
2022/09/15 01:42:37;;;;;;;;;;;;;;;;;;6161494;23;20100;-77
2022/09/15 01:45:04;;;;;;;19.02;3.85;;;;;;;;;;6159677;23;19930;-78
2022/09/15 01:47:30;;;;;;;11.38;3.75;;;;;;;;;;6160396;23;20020;-79
2022/09/15 01:49:55;;;;;;;;;;;;;;;;;;6160545;23;19997;-78
2022/09/15 01:52:21;;;;;;;10.07;3.42;;;;;;;;;;6160086;23;19915;-77
2022/09/15 01:54:48;;;;;;;;;;;;;;;;;;6161195;23;20408;-78
2022/09/15 01:57:20;;;;;;;27.92;4.20;;;;;;;;;;6159131;23;19908;-78
2022/09/15 01:59:46;;;;;;;23.10;3.58;;;;;;;;;;6159025;23;20067;-78
2022/09/15 02:02:13;;;;;;;43.15;4.97;;;;;;;;;;6159557;23;20428;-78
2022/09/15 02:04:40;;;;;;;10.52;2.83;;;;;;;;;;6160306;23;20313;-78
2022/09/15 02:07:10;;;;;;;13.88;2.90;;;;;;;;;;6186455;23;20005;-78
2022/09/15 02:09:37;;;;;;;3.03;2.35;;;;;;;;;;6188524;23;20016;-78
2022/09/15 02:12:06;;;;;;;9.73;2.42;;;;;;;;;;6185329;23;19997;-79
2022/09/15 02:14:50;;;;;;;5.28;2.13;;;;;;;;;;6185730;23;20059;-79
2022/09/15 02:17:17;;;;;;;3.40;2.13;;;;;;;;;;6135280;23;20020;-78
2022/09/15 02:19:48;;;;;;;10.00;2.22;;;;;;;;;;6185267;23;20443;-78
2022/09/15 02:22:26;;;;;;;2.70;1.92;;;;;;;;;;6159568;23;20013;-78
2022/09/15 02:24:55;;;;;;;8.23;2.40;;;;;;;;;;6159714;23;20048;-78
2022/09/15 02:27:23;;;;;;;10.75;2.20;;;;;;;;;;6160197;23;20449;-78
2022/09/15 02:29:48;;;;;;;9.27;2.13;;;;;;;;;;6184721;23;20088;-78
2022/09/15 02:32:14;;;;;;;;;;;;;;;;;;6186108;23;20424;-78
2022/09/15 02:34:41;;;;;;;10.35;2.20;;;;;;;;;;6185906;23;19915;-78
2022/09/15 02:37:06;;;;;;;19.30;2.60;;;;;;;;;;6159633;23;20001;-78
2022/09/15 02:39:31;;;;;;;;;;;;;;;;;;6160671;23;20015;-78
2022/09/15 02:41:58;;;;;;;46.03;3.30;;;;;;;;;;6186167;23;19904;-78
2022/09/15 02:44:24;;;;;;;20.38;2.60;;;;;;;;;;6185893;23;20449;-78
2022/09/15 02:46:49;;;;;;;;;;;;;;;;;;6135226;23;20016;-78
2022/09/15 02:49:15;;;;;;;38.85;3.33;;;;;;;;;;6186706;23;19908;-78
2022/09/15 02:51:41;;;;;;;;;;;;;;;;;;6185197;23;20325;-77
2022/09/15 02:54:07;;;;;;;8.20;2.40;;;;;;;;;;6185925;23;19912;-77
2022/09/15 02:56:32;;;;;;;;;;;;;;;;;;6184712;23;20007;-78
2022/09/15 02:58:57;;;;;;;9.77;2.15;;;;;;;;;;6159748;23;19908;-78
2022/09/15 03:01:23;;;;;;;;;;;;;;;;;;6160538;23;20011;-78
2022/09/15 03:03:48;;;;;;;4.78;2.00;;;;;;;;;;6159357;23;19915;-78
2022/09/15 03:06:17;;;;;;;;;;;;;;;;;;6161743;23;20500;-79
2022/09/15 03:08:43;;;;;;;7.70;2.65;;;;;;;;;;6186875;23;19908;-78
2022/09/15 03:11:10;;;;;;;5.22;1.73;;;;;;;;;;6161175;23;20380;-77
2022/09/15 03:13:36;;;;;;;16.23;3.00;;;;;;;;;;6186961;23;20349;-77
2022/09/15 03:16:02;;;;;;;;;;;;;;;;;;6162316;23;20001;-79
2022/09/15 03:18:27;;;;;;;4.88;1.95;;;;;;;;;;6188027;23;20336;-79
2022/09/15 03:20:52;;;;;;;;;;;;;;;;;;6187538;23;20001;-79
2022/09/15 03:23:18;;;;;;;3.42;1.77;;;;;;;;;;6187862;23;19908;-80
2022/09/15 03:25:43;;;;;;;;;;;;;;;;;;6187179;23;20017;-78
2022/09/15 03:28:09;;;;;;;4.55;2.50;;;;;;;;;;6136705;23;19908;-79
2022/09/15 03:30:35;;;;;;;3.97;2.17;;;;;;;;;;6136748;23;20008;-79
2022/09/15 03:33:00;;;;;;;;;;;;;;;;;;6162150;23;20013;-78
2022/09/15 03:35:26;;;;;;;2.67;1.75;;;;;;;;;;6161961;23;19994;-79
2022/09/15 03:37:52;;;;;;;;;;;;;;;;;;6187999;23;20013;-79
2022/09/15 03:40:17;;;;;;;2.17;1.80;;;;;;;;;;6188448;23;19915;-79
2022/09/15 03:42:43;;;;;;;;;;;;;;;;;;6162245;23;20009;-80
2022/09/15 03:45:09;;;;;;;3.63;2.40;;;;;;;;;;6188949;23;19908;-79
2022/09/15 03:47:35;;;;;;;2.25;1.52;;;;;;;;;;6164195;23;20017;-80
2022/09/15 03:50:00;;;;;;;;;;;;;;;;;;6190744;23;20001;-80
2022/09/15 03:52:30;;;;;;;2.67;2.00;;;;;;;;;;6190617;23;20485;-79
2022/09/15 03:54:55;;;;;;;2.60;2.00;;;;;;;;;;6164051;23;20071;-78
2022/09/15 03:57:21;;;;;;;;;;;;;;;;;;6164478;23;20009;-79
2022/09/15 03:59:46;;;;;;;2.95;1.98;;;;;;;;;;6191124;23;19910;-79
2022/09/15 04:02:13;;;;;;;;;;;;;;;;;;6190563;23;20019;-78
2022/09/15 04:04:38;;;;;;;2.88;2.15;;;;;;;;;;6163464;23;19904;-79
2022/09/15 04:07:04;;;;;;;;;;;;;;;;;;6188568;23;20059;-79
2022/09/15 04:09:30;;;;;;;3.08;2.20;;;;;;;;;;6189431;23;19904;-80
2022/09/15 04:11:55;;;;;;;4.22;2.50;;;;;;;;;;6164716;23;20020;-79
2022/09/15 04:14:21;;;;;;;;;;;;;;;;;;6166229;23;20433;-79
2022/09/15 04:16:46;;;;;;;3.53;2.53;;;;;;;;;;6162600;23;19947;-78
2022/09/15 04:19:11;;;;;;;;;;;;;;;;;;6137586;23;20001;-78
2022/09/15 04:21:37;;;;;;;4.13;2.00;;;;;;;;;;6162644;23;19908;-79
2022/09/15 04:24:04;;;;;;;;;;;;;;;;;;6183799;23;20028;-78
2022/09/15 04:26:33;;;;;;;2.53;1.80;;;;;;;;;;6159177;23;20320;-78
2022/09/15 04:28:59;;;;;;;3.08;2.20;;;;;;;;;;6137330;23;20010;-79
2022/09/15 04:31:24;;;;;;;;;;;;;;;;;;6183230;23;20456;-79
2022/09/15 04:33:50;;;;;;;3.63;2.90;;;;;;;;;;6159126;23;19905;-78
2022/09/15 04:36:17;;;;;;;3.40;2.42;;;;;;;;;;6157856;23;20017;-78
2022/09/15 04:38:43;;;;;;;3.80;2.55;;;;;;;;;;6157356;23;20337;-78
2022/09/15 04:41:08;;;;;;;;;;;;;;;;;;6158860;23;20009;-79
2022/09/15 04:43:36;;;;;;;3.80;2.55;;;;;;;;;;6161220;23;19959;-80
2022/09/15 04:46:11;;;;;;;4.47;2.88;;;;;;;;;;6186031;23;20549;-80
2022/09/15 04:48:36;;;;;;;;;;;;;;;;;;6161219;23;20060;-80
2022/09/15 04:51:02;;;;;;;5.57;3.80;;;;;;;;;;6162473;23;19912;-79
2022/09/15 04:53:28;;;;;;;;;;;;;;;;;;6187578;23;19989;-79
2022/09/15 04:56:00;;;;;;;3.30;2.75;;;;;;;;;;6158233;23;20280;-80
2022/09/15 04:58:25;;;;;;;4.82;3.10;;;;;;;;;;6159917;23;20437;-80
2022/09/15 05:00:51;;;;;;;;;;;;;;;;;;6159885;23;20001;-79
2022/09/15 05:03:16;;;;;;;4.00;2.50;;;;;;;;;;6160070;23;19919;-79
2022/09/15 05:05:42;;;;;;;;;;;;;;;;;;6183389;23;20040;-79
2022/09/15 05:08:07;;;;;;;2.67;1.92;;;;;;;;;;6161387;23;19908;-80
2022/09/15 05:10:33;;;;;;;;;;;;;;;;;;6160508;23;20001;-81
2022/09/15 05:12:58;;;;;;;4.82;2.80;;;;;;;;;;6161050;23;20420;-79
2022/09/15 05:15:24;;;;;;;;;;;;;;;;;;6184929;23;20488;-80
2022/09/15 05:17:49;;;;;;;4.72;2.70;;;;;;;;;;6159449;23;19930;-80
2022/09/15 05:20:14;;;;;;;;;;;;;;;;;;6160512;23;20059;-80
2022/09/15 05:22:40;;;;;;;4.88;3.17;;;;;;;;;;6162534;23;19916;-78
2022/09/15 05:25:05;;;;;;;;;;;;;;;;;;6185770;23;20021;-80
2022/09/15 05:27:32;;;;;;;3.53;2.65;;;;;;;;;;6161678;23;19908;-79
2022/09/15 05:29:58;;;;;;;3.65;2.78;;;;;;;;;;6161076;23;20010;-78
2022/09/15 05:32:23;;;;;;;;;;;;;;;;;;6163907;23;20100;-81
2022/09/15 05:34:49;;;;;;;3.67;2.35;;;;;;;;;;6161263;23;19904;-79
2022/09/15 05:37:14;;;;;;;;;;;;;;;;;;6163016;23;20009;-79
2022/09/15 05:39:40;;;;;;;4.40;2.75;;;;;;;;;;6164987;23;19903;-79
2022/09/15 05:42:05;;;;;;;;;;;;;;;;;;6163182;23;20445;-80
2022/09/15 05:44:31;;;;;;;5.70;3.20;;;;;;;;;;6165917;23;19905;-81
2022/09/15 05:46:56;;;;;;;;;;;;;;;;;;6189582;23;20478;-79
2022/09/15 05:49:22;;;;;;;5.97;2.88;;;;;;;;;;6166384;23;19904;-80
2022/09/15 05:51:47;;;;;;;;;;;;;;;;;;6188550;23;20096;-80
2022/09/15 05:54:13;;;;;;;4.20;2.40;;;;;;;;;;6165818;23;19998;-79
2022/09/15 05:56:38;;;;;;;;;;;;;;;;;;6164968;23;20077;-80
2022/09/15 05:59:04;;;;;;;4.75;2.88;;;;;;;;;;6161143;23;19905;-80
2022/09/15 06:01:29;;;;;;;;;;;;;;;;;;6187246;23;20041;-80
2022/09/15 06:03:55;;;;;;;5.45;3.05;;;;;;;;;;6161272;23;19987;-80
2022/09/15 06:06:20;;;;;;;;;;;;;;;;;;6161097;23;20017;-79
2022/09/15 06:08:48;;;;;;;5.30;3.97;;;;;;;;;;6160374;23;20343;-78
2022/09/15 06:11:16;;;;;;;7.43;4.10;;;;;;;;;;6187239;23;20386;-80
2022/09/15 06:13:42;;;;;;;6.72;3.90;;;;;;;;;;6186632;23;19998;-79
2022/09/15 06:16:07;;;;;;;;;;;;;;;;;;6187670;23;20347;-79
2022/09/15 06:18:34;;;;;;;5.55;3.65;;;;;;;;;;6160390;23;20300;-79
2022/09/15 06:21:03;;;;;;;6.40;4.00;;;;;;;;;;6185772;23;20041;-80
2022/09/15 06:23:29;;;;;;;6.15;2.75;;;;;;;;;;6188828;23;20080;-80
2022/09/15 06:25:54;;;;;;;;;;;;;;;;;;6192496;23;20019;-80
2022/09/15 06:28:20;;;;;;;5.82;4.13;;;;;;;;;;6190351;23;19912;-80
2022/09/15 06:30:48;;;;;;;;;;;;;;;;;;6164112;23;20020;-80
2022/09/15 06:33:14;;;;;;;5.15;3.72;;;;;;;;;;6189525;23;19896;-79
2022/09/15 06:35:40;;;;;;;5.05;3.20;;;;;;;;;;6173311;23;20017;-82
2022/09/15 06:38:07;;;;;;;4.30;3.00;;;;;;;;;;6199870;23;19997;-79
2022/09/15 06:40:42;;;;;;;7.60;3.88;;;;;;;;;;6197949;23;20020;-82
2022/09/15 06:43:26;;;;;;;7.60;4.10;;;;;;;;;;6195887;23;20076;-80
2022/09/15 06:45:52;;;;;;;;;;;;;;;;;;6190144;23;20017;-80
2022/09/15 06:48:17;;;;;;;5.35;3.83;;;;;;;;;;6167788;23;19914;-80
2022/09/15 06:50:43;;;;;;;;;;;;;;;;;;6145958;23;20008;-82
2022/09/15 06:53:08;;;;;;;5.97;3.70;;;;;;;;;;6167001;23;19908;-81
2022/09/15 06:55:34;;;;;;;;;;;;;;;;;;6196107;23;20005;-82
2022/09/15 06:57:59;;;;;;;5.35;3.67;;;;;;;;;;6169531;23;19908;-82
2022/09/15 07:00:26;;;;;;;6.25;3.70;;;;;;;;;;6168830;23;20017;-82
2022/09/15 07:02:52;;;;;;;4.90;3.90;;;;;;;;;;6169330;23;20064;-80
2022/09/15 07:05:17;;;;;;;;;;;;;;;;;;6192661;23;20012;-79
2022/09/15 07:07:43;;;;;;;5.53;3.00;;;;;;;;;;6197659;23;20303;-80
2022/09/15 07:10:08;;;;;;;;;;;;;;;;;;6194912;23;20096;-81
2022/09/15 07:12:34;;;;;;;5.88;3.50;;;;;;;;;;6168253;23;19912;-80
2022/09/15 07:14:59;;;;;;;4.57;3.40;;;;;;;;;;6165179;23;20003;-81
2022/09/15 07:17:25;;;;;;;;;;;;;;;;;;6192644;23;20318;-79
2022/09/15 07:19:51;;;;;;;4.50;3.38;;;;;;;;;;6164470;23;19924;-80
2022/09/15 07:22:16;;;;;;;;;;;;;;;;;;6189975;23;20412;-79
2022/09/15 07:24:41;;;;;;;4.07;2.60;;;;;;;;;;6164728;23;19920;-81
2022/09/15 07:27:07;;;;;;;;;;;;;;;;;;6192396;23;20016;-81
2022/09/15 07:29:33;;;;;;;3.75;2.72;;;;;;;;;;6166574;23;20316;-78
2022/09/15 07:32:00;;;;;;;4.25;2.42;;;;;;;;;;6191006;23;20009;-81
2022/09/15 07:34:25;;;;;;;;;;;;;;;;;;6168868;23;20421;-81
2022/09/15 07:36:51;;;;;;;3.10;2.10;;;;;;;;;;6193482;23;19915;-79
2022/09/15 07:39:16;;;;;;;;;;;;;;;;;;6190577;23;20000;-79
2022/09/15 07:41:41;;;;;;;3.85;1.88;;;;;;;;;;6166514;23;19915;-79
2022/09/15 07:44:07;;;;;;;3.15;1.88;;;;;;;;;;6164875;23;20008;-80
2022/09/15 07:46:33;;;;;;;5.72;2.10;;;;;;;;;;6164960;23;20417;-79
2022/09/15 07:48:59;;;;;;;;;;;;;;;;;;6165660;23;20005;-79
2022/09/15 07:51:25;;;;;;;3.05;1.90;;;;;;;;;;6164860;23;20374;-80
2022/09/15 07:53:50;;;;;;;;;;;;;;;;;;6166106;23;20001;-80
2022/09/15 07:56:17;;;;;;;4.43;2.60;;;;;;;;;;6192813;23;19908;-80
2022/09/15 07:58:43;;;;;;;3.42;2.50;;;;;;;;;;6191856;23;20417;-81
2022/09/15 08:01:13;;;;;;;;;;;;;;;;;;6165060;23;20068;-81
2022/09/15 08:03:42;;;;;;;5.43;2.60;;;;;;;;;;6192656;23;20323;-79
2022/09/15 08:06:07;;;;;;;3.08;2.40;;;;;;;;;;6166660;23;20361;-80
2022/09/15 08:08:33;;;;;;;;;;;;;;;;;;6169347;23;19997;-79
2022/09/15 08:10:59;;;;;;;4.85;2.38;;;;;;;;;;6194178;23;19914;-83
2022/09/15 08:13:25;;;;;;;3.45;2.15;;;;;;;;;;6167263;23;20001;-80
2022/09/15 08:15:51;;;;;;;3.08;2.20;;;;;;;;;;6193641;23;20079;-81
2022/09/15 08:18:16;;;;;;;3.10;2.30;;;;;;;;;;6165747;23;20001;-79
2022/09/15 08:20:42;;;;;;;;;;;;;;;;;;6190560;23;20017;-78
2022/09/15 08:23:08;;;;;;;4.60;1.88;;;;;;;;;;6191443;23;19908;-79
2022/09/15 08:25:34;;;;;;;3.35;2.10;;;;;;;;;;6165383;23;20104;-80
2022/09/15 08:28:00;;;;;;;3.13;2.30;;;;;;;;;;6166954;23;20009;-80
2022/09/15 08:30:25;;;;;;;5.90;2.20;;;;;;;;;;6167701;23;20059;-80
2022/09/15 08:32:51;;;;;;;4.18;2.08;;;;;;;;;;6190478;23;20000;-79
2022/09/15 08:35:16;;;;;;;;;;;;;;;;;;6140705;23;20360;-80
2022/09/15 08:37:42;;;;;;;4.00;1.98;;;;;;;;;;6165168;23;20320;-81
2022/09/15 08:40:12;;;;;;;2.90;2.20;;;;;;;;;;6193506;23;20062;-80
2022/09/15 08:42:38;;;;;;;5.13;2.30;;;;;;;;;;6141409;23;20047;-81
2022/09/15 08:45:10;;;;;;;3.15;2.20;;;;;;;;;;6168669;23;20076;-81
2022/09/15 08:47:36;;;;;;;3.80;2.15;;;;;;;;;;6166127;23;20045;-81
2022/09/15 08:50:21;;;;;;;3.28;1.95;;;;;;;;;;6166190;23;20005;-81
2022/09/15 08:53:01;;;;;;;3.35;2.10;;;;;;;;;;6168519;23;20100;-80
2022/09/15 08:55:45;;;;;;;4.68;2.45;;;;;;;;;;6192854;23;20021;-81
2022/09/15 08:58:20;;;;;;;5.47;2.25;;;;;;;;;;6195504;23;20017;-80
2022/09/15 09:00:50;;;;;;;5.60;2.17;;;;;;;;;;6193224;23;20410;-81
2022/09/15 09:03:16;;;;;;;7.15;2.47;;;;;;;;;;6168270;23;20005;-80
2022/09/15 09:05:44;;;;;;;4.68;2.25;;;;;;;;;;6140091;23;20352;-81
2022/09/15 09:08:15;;;;;;;5.25;2.40;;;;;;;;;;6165769;23;20009;-79
2022/09/15 09:10:44;;;;;;;3.95;2.22;;;;;;;;;;6192012;23;20049;-80
2022/09/15 09:13:15;;;;;;;3.15;2.20;;;;;;;;;;6191135;23;19993;-82
2022/09/15 09:15:40;;;;;;;3.13;2.70;;;;;;;;;;6165414;23;20013;-80
2022/09/15 09:18:17;;;;;;;4.80;2.30;;;;;;;;;;6165492;23;20001;-81
2022/09/15 09:20:47;;;;;;;5.50;2.60;;;;;;;;;;6167803;23;20044;-81
2022/09/15 09:23:13;;;;;;;7.00;3.30;;;;;;;;;;6194010;23;20012;-80
2022/09/15 09:25:39;;;;;;;5.25;2.85;;;;;;;;;;6192219;23;20052;-81
2022/09/15 09:28:06;;;;;;;5.55;3.20;;;;;;;;;;6192544;23;20341;-81
2022/09/15 09:30:32;;;;;;;6.32;3.00;;;;;;;;;;6165581;23;20020;-81
2022/09/15 09:32:57;;;;;;;4.20;3.20;;;;;;;;;;6167608;23;20001;-82
2022/09/15 09:35:51;;;;;;;5.43;3.03;;;;;;;;;;6171281;23;20024;-81
2022/09/15 09:38:36;;;;;;;5.60;3.88;;;;;;;;;;6164418;23;20016;-81
2022/09/15 09:41:13;;;;;;;7.68;4.13;;;;;;;;;;6163978;23;20523;-81
2022/09/15 09:43:38;;;;;;;;;;;;;;;;;;6166583;23;20048;-82
2022/09/15 09:46:09;;;;;;;5.33;4.20;;;;;;;;;;6165100;23;19908;-82
2022/09/15 09:48:35;;;;;;;6.43;3.95;;;;;;;;;;6165289;23;20104;-81
2022/09/15 09:51:00;;;;;;;6.88;4.43;;;;;;;;;;6163515;23;20048;-81
2022/09/15 09:53:32;;;;;;;7.53;4.40;;;;;;;;;;6191181;23;20091;-81
2022/09/15 09:56:14;;;;;;;5.93;4.10;;;;;;;;;;6190782;23;20021;-81
2022/09/15 09:58:44;;;;;;;6.47;4.10;;;;;;;;;;6166956;23;20012;-81
2022/09/15 10:01:10;;;;;;;5.97;3.85;;;;;;;;;;6189088;23;20051;-82
2022/09/15 10:03:37;;;;;;;5.88;4.00;;;;;;;;;;6164460;23;20017;-81
2022/09/15 10:06:04;;;;;;;5.72;3.88;;;;;;;;;;6188791;23;20009;-80
2022/09/15 10:08:29;;;;;;;5.15;3.90;;;;;;;;;;6189571;23;20009;-81
2022/09/15 10:11:01;;;;;;;7.05;3.95;;;;;;;;;;6164974;23;20036;-81
2022/09/15 10:13:26;;;;;;;5.30;4.20;;;;;;;;;;6164440;23;20037;-80
2022/09/15 10:15:52;;;;;;;4.85;3.95;;;;;;;;;;6164862;23;20008;-81
2022/09/15 10:18:29;;;;;;;6.00;3.75;;;;;;;;;;6189617;23;20009;-81
2022/09/15 10:20:55;;;;;;;6.18;3.50;;;;;;;;;;6169790;23;20020;-83
2022/09/15 10:23:28;;;;;;;3.88;3.20;;;;;;;;;;6200268;23;20001;-80
2022/09/15 10:25:58;;;;;;;6.47;4.53;;;;;;;;;;6159486;23;20068;-85
2022/09/15 10:28:24;;;;;;;4.85;3.60;;;;;;;;;;6127898;23;19998;-82
2022/09/15 10:30:59;;;;;;;4.82;3.63;;;;;;;;;;6134217;23;20494;-82
2022/09/15 10:33:26;;;;;;;3.80;3.10;;;;;;;;;;6136986;23;20010;-84
2022/09/15 10:36:02;;;;;;;5.55;3.40;;;;;;;;;;6170165;23;20020;-80
2022/09/15 10:38:44;;;;;;;7.72;3.88;;;;;;;;;;6197955;23;20087;-81
2022/09/15 10:41:10;;;;;;;4.13;3.10;;;;;;;;;;6196604;23;20031;-80
2022/09/15 10:43:48;;;;;;;3.67;3.10;;;;;;;;;;6174790;23;20424;-81
2022/09/15 10:46:22;;;;;;;6.28;3.55;;;;;;;;;;6202678;23;20016;-80
2022/09/15 10:48:49;;;;;;;5.82;3.80;;;;;;;;;;6175390;23;20039;-81
2022/09/15 10:51:45;;;;;;;5.10;4.07;;;;;;;;;;6226435;23;19997;-81
2022/09/15 10:54:10;;;;;;;4.20;3.28;;;;;;;;;;6142835;23;20049;-82
2022/09/15 10:56:37;;;;;;;5.07;3.42;;;;;;;;;;6197495;23;20000;-81
2022/09/15 10:59:06;;;;;;;5.95;3.38;;;;;;;;;;6225267;23;20009;-82
2022/09/15 11:01:33;;;;;;;5.90;3.20;;;;;;;;;;6203941;23;20056;-83
2022/09/15 11:04:17;;;;;;;4.72;2.95;;;;;;;;;;6198585;23;20008;-80
2022/09/15 11:06:49;;;;;;;6.65;3.47;;;;;;;;;;6201000;23;20100;-82
2022/09/15 11:09:35;;;;;;;4.15;3.22;;;;;;;;;;6225700;23;20428;-84
2022/09/15 11:12:15;;;;;;;3.55;3.17;;;;;;;;;;6196371;23;20032;-80
2022/09/15 11:14:51;;;;;;;4.72;3.83;;;;;;;;;;6173216;23;20012;-80
2022/09/15 11:17:35;;;;;;;5.73;3.67;;;;;;;;;;6172551;23;20071;-82
2022/09/15 11:20:00;;;;;;;4.88;3.83;;;;;;;;;;6198799;23;20008;-81
2022/09/15 11:22:27;;;;;;;7.82;3.90;;;;;;;;;;6195176;23;20003;-80
2022/09/15 11:24:57;;;;;;;4.15;3.00;;;;;;;;;;6197266;23;20013;-83
2022/09/15 11:27:27;;;;;;;5.75;3.25;;;;;;;;;;6148638;23;20009;-81
2022/09/15 11:29:59;;;;;;;4.55;3.40;;;;;;;;;;6173216;23;20011;-81
2022/09/15 11:32:27;;;;;;;4.07;3.00;;;;;;;;;;6173157;23;20412;-80
2022/09/15 11:34:52;;;;;;;5.47;3.10;;;;;;;;;;6223420;23;20008;-81
2022/09/15 11:37:19;;;;;;;4.60;3.15;;;;;;;;;;6197006;23;20016;-80
2022/09/15 11:39:49;;;;;;;3.97;2.60;;;;;;;;;;6171905;23;20333;-80
2022/09/15 11:42:17;;;;;;;7.00;3.30;;;;;;;;;;6175934;23;20352;-81
2022/09/15 11:44:43;;;;;;;4.45;3.65;;;;;;;;;;6198335;23;20432;-82
2022/09/15 11:47:13;;;;;;;6.90;3.47;;;;;;;;;;6173862;23;20043;-82
2022/09/15 11:49:47;;;;;;;5.78;3.50;;;;;;;;;;6196518;23;19996;-80
2022/09/15 11:52:12;;;;;;;5.57;3.83;;;;;;;;;;6170597;23;20042;-82
2022/09/15 11:54:53;;;;;;;5.68;3.63;;;;;;;;;;6200375;23;19997;-82
2022/09/15 11:57:21;;;;;;;4.43;3.35;;;;;;;;;;6198266;23;20031;-79
2022/09/15 11:59:52;;;;;;;5.35;3.67;;;;;;;;;;6150171;23;20012;-81
2022/09/15 12:02:30;;;;;;;9.32;3.45;;;;;;;;;;6173347;23;20012;-81
2022/09/15 12:05:05;;;;;;;4.20;3.47;;;;;;;;;;6199582;23;20023;-81
2022/09/15 12:07:31;;;;;;;5.03;3.65;;;;;;;;;;6173790;23;20416;-81
2022/09/15 12:10:05;;;;;;;6.95;4.07;;;;;;;;;;6199636;23;20008;-82
2022/09/15 12:12:31;;;;;;;9.05;3.60;;;;;;;;;;6199369;23;20015;-81
2022/09/15 12:14:56;;;;;;;4.65;3.65;;;;;;;;;;6175999;23;19996;-81
2022/09/15 12:17:28;;;;;;;5.50;3.80;;;;;;;;;;6174271;23;20016;-80
2022/09/15 12:19:56;;;;;;;4.85;3.50;;;;;;;;;;6200454;23;20022;-80
2022/09/15 12:22:27;;;;;;;6.88;3.30;;;;;;;;;;6175167;23;20004;-80
2022/09/15 12:25:02;;;;;;;6.40;3.70;;;;;;;;;;6199378;23;20008;-79
2022/09/15 12:27:28;;;;;;;6.05;3.78;;;;;;;;;;6199058;23;20017;-81
2022/09/15 12:29:54;;;;;;;4.75;3.50;;;;;;;;;;6199476;23;20007;-82
2022/09/15 12:32:25;;;;;;;7.22;3.80;;;;;;;;;;6198723;23;20519;-82
2022/09/15 12:34:54;;;;;;;8.50;3.80;;;;;;;;;;6175055;23;20050;-80
2022/09/15 12:37:19;;;;;;;4.60;3.30;;;;;;;;;;6176484;23;20012;-81
2022/09/15 12:42:20;;;;;;;5.72;3.17;;;;;;;;;;6152121;23;20020;-81
2022/09/15 12:44:47;;;;;;;4.65;3.25;;;;;;;;;;6199977;23;20055;-84
2022/09/15 12:47:20;;;;;;;3.70;2.95;;;;;;;;;;6227021;23;20055;-81
2022/09/15 12:49:46;;;;;;;5.82;3.72;;;;;;;;;;6198965;23;20052;-80
2022/09/15 12:52:12;;;;;;;4.43;3.30;;;;;;;;;;6225507;23;20028;-80
2022/09/15 12:54:40;;;;;;;5.60;3.25;;;;;;;;;;6174349;23;20032;-82
2022/09/15 12:57:06;;;;;;;4.50;3.40;;;;;;;;;;6225971;23;20482;-80
2022/09/15 12:59:32;;;;;;;5.07;3.13;;;;;;;;;;6176383;23;20091;-82
2022/09/15 13:01:58;;;;;;;4.22;3.30;;;;;;;;;;6176530;23;20005;-83
2022/09/15 13:04:44;;;;;;;3.95;3.25;;;;;;;;;;6198779;23;20017;-81
2022/09/15 13:07:17;;;;;;;4.88;3.38;;;;;;;;;;6200768;23;20012;-82
2022/09/15 13:09:43;;;;;;;4.65;3.17;;;;;;;;;;6201532;23;20059;-82
2022/09/15 13:12:09;;;;;;;5.55;3.05;;;;;;;;;;6154377;23;19997;-80
2022/09/15 13:14:38;;;;;;;6.00;3.20;;;;;;;;;;6228276;23;20036;-81
2022/09/15 13:17:15;;;;;;;3.97;2.70;;;;;;;;;;6179683;23;20064;-80
2022/09/15 13:19:51;;;;;;;5.28;2.88;;;;;;;;;;6179395;23;20016;-80
2022/09/15 13:22:26;;;;;;;3.50;2.70;;;;;;;;;;6183969;23;19997;-84
2022/09/15 13:25:12;;;;;;;3.50;2.80;;;;;;;;;;6228800;23;20050;-79
2022/09/15 13:27:42;;;;;;;4.05;2.85;;;;;;;;;;6179066;23;20021;-79
2022/09/15 13:30:08;;;;;;;3.67;2.70;;;;;;;;;;6174015;23;20027;-80
2022/09/15 13:32:37;;;;;;;6.75;3.30;;;;;;;;;;6199966;23;20008;-80
2022/09/15 13:35:07;;;;;;;6.90;3.20;;;;;;;;;;6233600;23;20047;-81
2022/09/15 13:37:56;;;;;;;4.32;3.10;;;;;;;;;;6203059;23;20444;-80
2022/09/15 13:40:49;;;;;;;3.75;3.03;;;;;;;;;;6158646;23;20016;-81
2022/09/15 13:43:47;;;;;;;6.07;4.00;;;;;;;;;;6181513;23;20020;-82
2022/09/15 13:46:15;;;;;;;8.13;4.78;;;;;;;;;;6156776;23;20023;-82
2022/09/15 13:48:47;;;;;;;6.28;4.07;;;;;;;;;;6180440;23;20054;-83
2022/09/15 13:51:38;;;;;;;7.00;4.00;;;;;;;;;;6230791;23;20023;-81
2022/09/15 13:54:14;;;;;;;5.68;3.50;;;;;;;;;;6226086;23;20016;-80
2022/09/15 13:56:40;;;;;;;5.10;3.13;;;;;;;;;;6174754;23;20047;-80
2022/09/15 13:59:06;;;;;;;6.50;3.30;;;;;;;;;;6226413;23;19996;-84
2022/09/15 14:01:33;;;;;;;5.32;3.10;;;;;;;;;;6199318;23;20062;-83
2022/09/15 14:04:00;;;;;;;5.85;4.28;;;;;;;;;;6176015;23;20000;-81
2022/09/15 14:06:29;;;;;;;11.82;5.93;;;;;;;;;;6198323;23;20100;-81
2022/09/15 14:08:56;;;;;;;14.57;7.35;;;;;;;;;;6174260;23;20083;-80
2022/09/15 14:11:28;;;;;;;7.80;4.80;;;;;;;;;;6174645;23;20005;-81
2022/09/15 14:13:54;;;;;;;5.32;3.05;;;;;;;;;;6180193;23;20019;-82
2022/09/15 14:16:23;;;;;;;7.47;4.55;;;;;;;;;;6175973;23;20060;-81
2022/09/15 14:18:49;;;;;;;8.82;4.13;;;;;;;;;;6202735;23;20020;-82
2022/09/15 14:21:19;;;;;;;6.40;3.58;;;;;;;;;;6176797;23;20000;-80
2022/09/15 14:23:48;;;;;;;3.80;3.00;;;;;;;;;;6200903;23;20043;-81
2022/09/15 14:26:14;;;;;;;5.80;3.50;;;;;;;;;;6200427;23;20011;-82
2022/09/15 14:28:40;;;;;;;4.97;3.00;;;;;;;;;;6173987;23;20020;-80
2022/09/15 14:31:07;;;;;;;5.20;3.45;;;;;;;;;;6174505;23;20083;-82
2022/09/15 14:33:36;;;;;;;7.15;4.40;;;;;;;;;;6199492;23;20387;-83
2022/09/15 14:36:10;;;;;;;4.72;3.53;;;;;;;;;;6175857;23;20006;-82
2022/09/15 14:38:35;;;;;;;4.82;4.10;;;;;;;;;;6176052;23;20107;-82
2022/09/15 14:41:01;;;;;;;6.80;3.22;;;;;;;;;;6177584;23;20027;-83
2022/09/15 14:43:39;;;;;;;5.18;3.50;;;;;;;;;;6156446;23;20018;-82
2022/09/15 14:46:11;;;;;;;6.50;3.78;;;;;;;;;;6142020;23;20424;-84
2022/09/15 14:48:38;;;;;;;6.18;4.00;;;;;;;;;;6163710;23;20081;-82
2022/09/15 14:51:07;;;;;;;6.68;3.72;;;;;;;;;;6167937;23;19998;-82
2022/09/15 14:53:34;;;;;;;6.07;4.05;;;;;;;;;;6141207;23;20014;-80
2022/09/15 14:56:05;;;;;;;4.88;3.75;;;;;;;;;;6142714;23;20005;-82
2022/09/15 14:58:31;;;;;;;5.55;3.70;;;;;;;;;;6167033;23;20065;-83
2022/09/15 15:01:12;;;;;;;6.72;3.63;;;;;;;;;;6143545;23;20527;-83
2022/09/15 15:04:13;;;;;;;6.55;4.13;;;;;;;;;;6170682;23;20041;-82
2022/09/15 15:07:00;;;;;;;5.78;4.05;;;;;;;;;;6175129;23;20456;-81
2022/09/15 15:09:32;;;;;;;9.20;4.20;;;;;;;;;;6169102;23;19993;-81
2022/09/15 15:17:33;;;;;;;7.55;4.38;;;;;;;;;;6092198;23;20100;-82
2022/09/15 15:20:00;;;;;;;8.52;5.13;;;;;;;;;;6203614;23;20040;-81
2022/09/15 15:22:26;;;;;;;9.10;5.22;;;;;;;;;;6154350;23;20013;-82